Time;durP1;ratioP1;P1;durP2;ratioP2;P2;SDS_P1;SDS_P2;PMS_P1;PMS_P2;Temp;Humidity;BMP_temperature;BMP_pressure;BME280_temperature;BME280_humidity;BME280_pressure;Samples;Min_cycle;Max_cycle;Signal;HPM_P1;HPM_P2
2023/04/28 00:00:48;;;;;;;3.23;1.30;;;22.20;99.90;;;;;;4956907;28;20294;-90
2023/04/28 00:03:20;;;;;;;2.17;1.17;;;22.20;99.90;;;;;;4957117;28;20208;-90
2023/04/28 00:05:53;;;;;;;4.53;1.50;;;22.10;99.90;;;;;;4957140;28;20693;-91
2023/04/28 00:08:26;;;;;;;2.40;1.20;;;22.10;99.90;;;;;;4957221;28;20219;-89
2023/04/28 00:10:56;;;;;;;4.60;1.13;;;21.90;99.90;;;;;;4961821;28;20215;-91
2023/04/28 00:13:27;;;;;;;1.27;1.00;;;21.90;99.90;;;;;;4972576;28;20235;-88
2023/04/28 00:15:58;;;;;;;2.60;1.40;;;21.90;99.90;;;;;;4991521;28;20227;-90
2023/04/28 00:18:32;;;;;;;3.30;1.60;;;22.00;99.90;;;;;;4985157;28;20662;-90
2023/04/28 00:21:03;;;;;;;5.53;1.40;;;22.00;99.90;;;;;;4980368;28;20227;-92
2023/04/28 00:23:34;;;;;;;1.93;1.10;;;22.00;99.90;;;;;;4994431;28;20194;-90
2023/04/28 00:26:05;;;;;;;3.00;1.27;;;22.00;99.90;;;;;;4998032;28;20217;-91
2023/04/28 00:28:35;;;;;;;4.17;1.17;;;21.90;99.90;;;;;;4995002;28;20206;-91
2023/04/28 00:31:12;;;;;;;120.67;7.17;;;21.90;99.90;;;;;;4997121;28;20214;-92
2023/04/28 00:33:45;;;;;;;1.30;1.00;;;21.80;99.90;;;;;;4998546;28;20235;-89
2023/04/28 00:36:16;;;;;;;2.90;1.17;;;21.80;99.90;;;;;;4989526;28;20651;-91
2023/04/28 00:38:47;;;;;;;2.53;1.20;;;21.80;99.90;;;;;;4976719;28;20203;-90
2023/04/28 00:41:18;;;;;;;1.60;1.10;;;21.80;99.90;;;;;;4976189;28;20239;-90
2023/04/28 00:43:50;;;;;;;3.20;0.97;;;21.90;99.90;;;;;;4975430;28;20211;-90
2023/04/28 00:46:25;;;;;;;1.10;1.00;;;21.70;99.90;;;;;;4976688;28;20290;-92
2023/04/28 00:48:59;;;;;;;2.50;1.30;;;21.70;99.90;;;;;;4975638;28;20207;-91
2023/04/28 00:51:32;;;;;;;2.73;1.33;;;21.60;99.90;;;;;;4975875;28;20234;-91
2023/04/28 00:54:03;;;;;;;4.13;1.40;;;21.80;99.90;;;;;;4968216;28;20579;-91
2023/04/28 00:56:34;;;;;;;2.60;1.40;;;22.10;99.90;;;;;;4956253;28;20207;-91
2023/04/28 00:59:05;;;;;;;3.43;1.20;;;22.30;99.90;;;;;;4956876;28;20211;-91
2023/04/28 01:01:37;;;;;;;1.70;1.23;;;22.50;99.90;;;;;;4974816;28;20599;-91
2023/04/28 01:04:10;;;;;;;3.60;1.57;;;22.50;99.90;;;;;;4975284;28;20294;-90
2023/04/28 01:06:45;;;;;;;3.30;1.67;;;22.80;99.90;;;;;;4955396;29;20286;-92
2023/04/28 01:09:15;;;;;;;29.77;2.40;;;22.80;99.90;;;;;;4957835;28;20235;-92
2023/04/28 01:11:46;;;;;;;1.67;1.30;;;23.20;99.90;;;;;;4961958;28;20211;-92
2023/04/28 01:14:17;;;;;;;1.67;1.10;;;23.10;99.90;;;;;;4956369;28;20626;-92
2023/04/28 01:16:48;;;;;;;1.90;1.23;;;23.10;99.90;;;;;;4956033;28;20211;-89
2023/04/28 01:19:23;;;;;;;1.57;1.10;;;23.00;99.90;;;;;;4958796;28;20223;-88
2023/04/28 01:21:55;;;;;;;1.73;1.20;;;23.10;99.90;;;;;;4974389;28;20284;-90
2023/04/28 01:24:29;;;;;;;185.77;7.60;;;23.10;99.90;;;;;;4974769;28;20222;-91
2023/04/28 01:27:00;;;;;;;1.13;1.03;;;23.20;99.90;;;;;;4977234;28;20199;-90
2023/04/28 01:29:31;;;;;;;2.33;1.30;;;23.10;99.90;;;;;;4977537;28;20253;-90
2023/04/28 01:32:02;;;;;;;2.57;1.40;;;23.00;99.90;;;;;;4979229;28;20211;-91
2023/04/28 01:34:33;;;;;;;2.77;1.50;;;23.20;99.90;;;;;;4970149;28;20591;-90
2023/04/28 01:37:05;;;;;;;2.47;1.57;;;23.20;99.90;;;;;;4979194;28;20251;-90
2023/04/28 01:39:38;;;;;;;2.90;1.50;;;22.50;99.90;;;;;;4977893;28;20570;-90
2023/04/28 01:42:10;;;;;;;4.30;1.70;;;22.30;99.90;;;;;;4978245;28;20603;-88
2023/04/28 01:44:41;;;;;;;3.03;1.50;;;22.50;99.90;;;;;;4977867;28;20202;-88
2023/04/28 01:47:13;;;;;;;3.13;1.73;;;22.50;99.90;;;;;;4962887;28;20258;-87
2023/04/28 01:49:46;;;;;;;3.77;1.93;;;22.30;99.90;;;;;;4973911;28;20678;-87
2023/04/28 01:52:18;;;;;;;1.90;1.47;;;22.10;99.90;;;;;;4982362;28;20203;-93
2023/04/28 01:54:52;;;;;;;2.83;1.50;;;22.00;99.90;;;;;;4972237;28;20204;-95
2023/04/28 01:57:24;;;;;;;2.83;1.43;;;21.70;99.90;;;;;;4976553;28;20211;-95
2023/04/28 01:59:55;;;;;;;2.80;1.60;;;21.40;99.90;;;;;;4978292;28;20199;-96
2023/04/28 02:02:27;;;;;;;2.10;1.67;;;21.00;99.90;;;;;;4979038;28;20262;-96
2023/04/28 02:05:00;;;;;;;2.80;1.50;;;20.70;99.90;;;;;;4980268;28;20658;-93
2023/04/28 02:07:31;;;;;;;2.23;1.50;;;20.40;99.90;;;;;;4966632;28;20257;-96
2023/04/28 02:10:06;;;;;;;2.43;1.40;;;20.10;99.90;;;;;;4983149;28;20215;-95
2023/04/28 02:12:38;;;;;;;2.97;1.70;;;19.80;99.90;;;;;;4979363;28;20210;-94
2023/04/28 02:15:10;;;;;;;3.30;1.50;;;19.50;99.90;;;;;;4978992;28;20211;-94
2023/04/28 02:17:43;;;;;;;1.87;1.27;;;19.30;99.90;;;;;;4970222;28;20274;-95
2023/04/28 02:20:15;;;;;;;1.57;1.30;;;19.10;99.90;;;;;;4976818;28;20222;-95
2023/04/28 02:22:47;;;;;;;3.90;1.40;;;18.80;99.90;;;;;;4987588;28;20238;-95
2023/04/28 02:25:26;;;;;;;33.93;2.50;;;18.70;99.90;;;;;;4988488;28;20212;-92
2023/04/28 02:27:58;;;;;;;2.10;1.37;;;18.60;99.90;;;;;;4973368;28;20199;-94
2023/04/28 02:30:35;;;;;;;1.57;1.20;;;18.50;99.90;;;;;;4979943;28;20210;-93
2023/04/28 02:33:07;;;;;;;3.40;1.50;;;18.40;99.90;;;;;;4979197;28;20207;-96
2023/04/28 02:35:39;;;;;;;2.87;1.60;;;18.30;99.90;;;;;;4979287;28;20211;-93
2023/04/28 02:38:10;;;;;;;3.43;1.50;;;18.20;99.90;;;;;;4977884;28;20249;-93
2023/04/28 02:40:44;;;;;;;2.10;1.47;;;18.10;99.90;;;;;;4977933;28;20207;-94
2023/04/28 02:43:15;;;;;;;2.50;1.60;;;18.00;99.90;;;;;;4967964;28;20364;-93
2023/04/28 02:45:47;;;;;;;2.90;1.43;;;17.90;99.90;;;;;;4959685;29;20212;-93
2023/04/28 02:48:19;;;;;;;2.63;1.53;;;17.80;99.90;;;;;;4959374;28;20283;-92
2023/04/28 02:50:51;;;;;;;2.33;1.27;;;17.70;99.90;;;;;;4978348;28;20211;-93
2023/04/28 02:53:24;;;;;;;2.03;1.50;;;17.60;99.90;;;;;;4977966;28;20669;-93
2023/04/28 02:55:58;;;;;;;2.97;1.33;;;17.40;99.90;;;;;;4977403;28;20318;-93
2023/04/28 02:58:30;;;;;;;2.47;1.40;;;17.40;99.90;;;;;;4976726;28;20554;-92
2023/04/28 03:01:02;;;;;;;1.60;1.47;;;17.30;99.90;;;;;;5007987;28;20294;-93
2023/04/28 03:03:34;;;;;;;2.90;1.50;;;17.20;99.90;;;;;;4968834;28;20606;-93
2023/04/28 03:06:06;;;;;;;2.23;1.83;;;17.10;99.90;;;;;;4966546;28;20678;-92
2023/04/28 03:08:37;;;;;;;2.17;1.60;;;16.90;99.90;;;;;;4974453;28;20625;-92
2023/04/28 03:11:11;;;;;;;3.63;1.80;;;16.80;99.90;;;;;;4971031;28;21540;-92
2023/04/28 03:13:43;;;;;;;2.70;2.10;;;16.70;99.90;;;;;;4973810;28;20673;-92
2023/04/28 03:16:14;;;;;;;3.60;2.27;;;16.60;99.90;;;;;;4972489;28;20234;-93
2023/04/28 03:18:46;;;;;;;4.23;2.00;;;16.50;99.90;;;;;;4973743;28;20253;-93
2023/04/28 03:21:18;;;;;;;4.73;2.20;;;16.40;99.90;;;;;;4971437;28;20206;-89
2023/04/28 03:23:48;;;;;;;4.03;2.40;;;16.40;99.90;;;;;;4968644;28;20728;-90
2023/04/28 03:26:23;;;;;;;2.73;2.10;;;16.30;99.90;;;;;;4979707;28;20211;-89
2023/04/28 03:28:55;;;;;;;2.13;1.90;;;16.20;99.90;;;;;;4973903;28;20253;-89
2023/04/28 03:31:27;;;;;;;2.20;1.50;;;16.10;99.90;;;;;;4975080;28;20250;-89
2023/04/28 03:33:58;;;;;;;3.63;1.97;;;16.00;99.90;;;;;;4976462;28;20207;-90
2023/04/28 03:36:30;;;;;;;2.27;1.80;;;15.90;99.90;;;;;;4967072;28;20220;-92
2023/04/28 03:39:02;;;;;;;3.27;2.00;;;15.80;99.90;;;;;;4964460;28;20204;-93
2023/04/28 03:41:37;;;;;;;3.73;1.90;;;15.70;99.90;;;;;;4975501;28;20266;-93
2023/04/28 03:44:09;;;;;;;3.20;1.90;;;15.60;99.90;;;;;;4974497;28;20627;-93
2023/04/28 03:46:40;;;;;;;7.23;2.33;;;15.60;99.90;;;;;;4981197;28;20217;-95
2023/04/28 03:49:12;;;;;;;3.87;1.70;;;15.50;99.90;;;;;;4972853;28;20666;-93
2023/04/28 03:51:43;;;;;;;8.03;2.33;;;15.40;99.90;;;;;;4975503;28;20274;-93
2023/04/28 03:54:15;;;;;;;2.40;1.83;;;15.30;99.90;;;;;;4975977;28;20207;-93
2023/04/28 03:56:49;;;;;;;3.53;2.23;;;15.20;99.90;;;;;;4956383;28;20251;-93
2023/04/28 03:59:21;;;;;;;3.07;2.03;;;15.20;99.90;;;;;;4964974;28;20222;-92
2023/04/28 04:01:53;;;;;;;6.57;2.10;;;15.10;99.90;;;;;;4975724;28;20265;-92
2023/04/28 04:04:25;;;;;;;4.30;2.37;;;15.10;99.90;;;;;;4974026;28;20290;-92
2023/04/28 04:06:57;;;;;;;2.47;2.00;;;15.10;99.90;;;;;;4970050;28;20290;-92
2023/04/28 04:09:28;;;;;;;3.97;1.90;;;15.10;99.90;;;;;;4974319;28;20622;-93
2023/04/28 04:12:01;;;;;;;3.10;1.80;;;15.00;99.90;;;;;;4973248;28;20271;-93
2023/04/28 04:14:32;;;;;;;3.53;2.00;;;15.00;99.90;;;;;;4973310;28;20226;-92
2023/04/28 04:17:04;;;;;;;3.30;2.33;;;14.90;99.90;;;;;;4967336;28;20212;-92
2023/04/28 04:19:36;;;;;;;4.23;1.93;;;14.90;99.90;;;;;;4961691;28;20230;-93
2023/04/28 04:22:08;;;;;;;2.37;1.83;;;14.80;99.90;;;;;;4957775;28;20227;-93
2023/04/28 04:24:39;;;;;;;2.47;1.73;;;14.70;99.90;;;;;;4971597;28;20207;-94
2023/04/28 04:27:13;;;;;;;3.27;1.83;;;14.60;99.90;;;;;;4975992;28;20203;-93
2023/04/28 04:29:44;;;;;;;4.73;2.20;;;14.50;99.90;;;;;;4986565;28;20214;-92
2023/04/28 04:32:16;;;;;;;4.50;1.87;;;14.50;99.90;;;;;;4997839;28;20229;-93
2023/04/28 04:34:48;;;;;;;4.40;1.93;;;14.40;99.90;;;;;;4995827;28;20211;-94
2023/04/28 04:37:20;;;;;;;5.80;2.30;;;14.30;99.90;;;;;;4979372;28;20210;-93
2023/04/28 04:39:51;;;;;;;3.97;2.07;;;14.30;99.90;;;;;;4976265;28;20215;-94
2023/04/28 04:42:24;;;;;;;2.90;2.07;;;14.30;99.90;;;;;;4974093;28;20230;-94
2023/04/28 04:44:55;;;;;;;5.80;2.10;;;14.20;99.90;;;;;;4955409;29;20196;-93
2023/04/28 04:47:27;;;;;;;4.00;1.97;;;14.20;99.90;;;;;;4961554;28;20282;-94
2023/04/28 04:49:58;;;;;;;3.63;2.07;;;14.10;99.90;;;;;;4957762;28;20216;-94
2023/04/28 04:52:30;;;;;;;2.10;1.93;;;14.00;99.90;;;;;;4975285;28;20223;-94
2023/04/28 04:55:02;;;;;;;3.70;2.10;;;14.00;99.90;;;;;;4975863;28;20207;-94
2023/04/28 04:57:36;;;;;;;2.40;2.00;;;14.00;99.90;;;;;;4974164;28;20203;-93
2023/04/28 05:00:09;;;;;;;3.77;2.20;;;13.90;99.90;;;;;;4971700;28;20234;-92
2023/04/28 05:02:41;;;;;;;2.53;1.83;;;13.80;99.90;;;;;;4975650;28;20275;-94
2023/04/28 05:05:13;;;;;;;3.30;2.20;;;13.70;99.90;;;;;;4973064;28;20285;-94
2023/04/28 05:07:52;;;;;;;5.40;2.10;;;13.70;99.90;;;;;;4975191;28;20222;-94
2023/04/28 05:10:25;;;;;;;2.73;2.10;;;13.70;99.90;;;;;;4975602;28;20203;-93
2023/04/28 05:12:58;;;;;;;2.73;2.30;;;13.70;99.90;;;;;;4975523;28;20207;-93
2023/04/28 05:15:30;;;;;;;2.30;2.07;;;13.70;99.90;;;;;;4975710;28;20258;-94
2023/04/28 05:18:07;;;;;;;3.87;2.20;;;13.70;99.90;;;;;;4979155;28;20234;-93
2023/04/28 05:20:38;;;;;;;4.50;2.13;;;13.60;99.90;;;;;;4972966;28;20225;-93
2023/04/28 05:23:10;;;;;;;3.83;2.40;;;13.60;99.90;;;;;;4957241;28;20520;-93
2023/04/28 05:25:42;;;;;;;4.27;2.20;;;13.50;99.90;;;;;;4966904;28;20203;-92
2023/04/28 05:28:16;;;;;;;3.57;2.33;;;13.50;99.90;;;;;;4970110;28;20207;-93
2023/04/28 05:30:49;;;;;;;6.13;2.30;;;13.40;99.90;;;;;;4971533;28;20217;-94
2023/04/28 05:33:22;;;;;;;4.13;2.57;;;13.40;99.90;;;;;;4974840;28;20211;-94
2023/04/28 05:35:54;;;;;;;2.67;2.10;;;13.30;99.90;;;;;;4977947;28;20203;-93
2023/04/28 05:38:25;;;;;;;3.03;2.47;;;13.30;99.90;;;;;;4995334;28;20209;-94
2023/04/28 05:40:56;;;;;;;3.53;2.13;;;13.30;99.90;;;;;;4991337;28;20207;-96
2023/04/28 05:43:30;;;;;;;3.40;2.10;;;13.30;99.90;;;;;;4995752;28;20235;-93
2023/04/28 05:46:01;;;;;;;6.40;2.40;;;13.20;99.90;;;;;;4996492;28;20234;-95
2023/04/28 05:48:35;;;;;;;3.93;2.20;;;13.20;99.90;;;;;;4995020;28;20230;-95
2023/04/28 05:51:06;;;;;;;2.97;2.30;;;13.10;99.90;;;;;;4989138;28;20214;-94
2023/04/28 05:53:38;;;;;;;4.97;2.23;;;13.10;99.90;;;;;;4968767;28;20651;-95
2023/04/28 05:56:10;;;;;;;4.53;2.10;;;13.10;99.90;;;;;;4958957;28;20234;-95
2023/04/28 05:58:44;;;;;;;3.83;2.33;;;13.10;99.90;;;;;;4957998;28;20234;-95
2023/04/28 06:01:15;;;;;;;4.43;2.23;;;13.00;99.90;;;;;;4976161;28;20215;-95
2023/04/28 06:03:47;;;;;;;4.13;2.37;;;13.00;99.90;;;;;;4977814;28;20235;-92
2023/04/28 06:06:20;;;;;;;5.03;2.37;;;12.90;99.90;;;;;;4991687;28;20208;-96
2023/04/28 06:08:52;;;;;;;3.93;2.57;;;12.90;99.90;;;;;;4993699;28;20250;-96
2023/04/28 06:11:23;;;;;;;2.60;2.07;;;12.90;99.90;;;;;;4995603;28;20218;-95
2023/04/28 06:13:57;;;;;;;3.30;2.40;;;12.90;99.90;;;;;;4994353;28;20230;-95
2023/04/28 06:16:29;;;;;;;2.93;2.57;;;12.90;99.90;;;;;;4999003;28;20187;-96
2023/04/28 06:19:00;;;;;;;4.47;2.40;;;12.90;99.90;;;;;;4997266;28;20218;-96
2023/04/28 06:21:32;;;;;;;2.67;2.20;;;12.80;99.90;;;;;;4979996;28;20219;-95
2023/04/28 06:24:03;;;;;;;5.53;2.33;;;12.80;99.90;;;;;;4980362;28;20299;-95
2023/04/28 06:26:36;;;;;;;4.73;2.47;;;12.80;99.90;;;;;;4980546;28;20218;-96
2023/04/28 06:29:09;;;;;;;2.43;2.00;;;12.80;99.90;;;;;;4979253;28;20206;-96
2023/04/28 06:31:40;;;;;;;3.23;2.13;;;12.80;99.90;;;;;;4980351;28;20662;-96
2023/04/28 06:34:12;;;;;;;3.37;2.30;;;12.70;99.90;;;;;;4990500;28;20218;-94
2023/04/28 06:36:44;;;;;;;3.00;2.47;;;12.60;99.90;;;;;;4979697;28;20649;-96
2023/04/28 06:39:15;;;;;;;3.97;2.30;;;12.60;99.90;;;;;;4991989;28;20196;-95
2023/04/28 06:41:46;;;;;;;3.60;2.40;;;12.60;99.90;;;;;;4981485;28;20200;-96
2023/04/28 06:44:20;;;;;;;3.33;2.20;;;12.60;99.90;;;;;;4988322;28;20266;-95
2023/04/28 06:46:51;;;;;;;3.40;2.00;;;12.50;99.90;;;;;;4986751;28;20266;-94
2023/04/28 06:49:22;;;;;;;2.80;2.00;;;12.50;99.90;;;;;;4982434;28;20257;-95
2023/04/28 06:51:54;;;;;;;2.37;2.10;;;12.50;99.90;;;;;;4974773;28;20242;-95
2023/04/28 06:54:26;;;;;;;4.83;2.03;;;12.40;99.90;;;;;;4978011;28;20266;-96
2023/04/28 06:56:58;;;;;;;4.40;2.30;;;12.40;99.90;;;;;;4979326;28;20206;-96
2023/04/28 06:59:32;;;;;;;4.80;2.10;;;12.40;99.90;;;;;;4978075;28;20234;-95
2023/04/28 07:02:04;;;;;;;3.53;2.00;;;12.40;99.90;;;;;;4982519;28;20211;-95
2023/04/28 07:04:35;;;;;;;4.13;2.10;;;12.30;99.90;;;;;;4981621;28;20341;-96
2023/04/28 07:07:07;;;;;;;3.47;2.40;;;12.30;99.90;;;;;;4977734;28;20215;-94
2023/04/28 07:09:39;;;;;;;2.60;2.10;;;12.30;99.90;;;;;;4958530;29;20219;-95
2023/04/28 07:12:11;;;;;;;2.83;1.97;;;12.30;99.90;;;;;;4957730;29;20263;-94
2023/04/28 07:14:44;;;;;;;4.63;2.33;;;12.20;99.90;;;;;;4959244;28;20218;-95
2023/04/28 07:17:16;;;;;;;3.97;1.70;;;12.20;99.90;;;;;;4976846;28;20708;-96
2023/04/28 07:19:48;;;;;;;2.03;1.83;;;12.20;99.90;;;;;;4978502;28;20274;-95
2023/04/28 07:22:20;;;;;;;2.43;2.03;;;12.20;99.90;;;;;;4980638;28;20207;-95
2023/04/28 07:24:51;;;;;;;1.77;1.60;;;12.10;99.90;;;;;;4978673;28;20231;-95
2023/04/28 07:27:24;;;;;;;3.90;2.20;;;12.10;99.90;;;;;;4977261;28;20563;-95
2023/04/28 07:29:58;;;;;;;3.10;2.00;;;12.10;99.90;;;;;;4976529;28;20210;-95
2023/04/28 07:32:35;;;;;;;3.20;2.10;;;12.10;99.90;;;;;;4971528;28;20203;-94
2023/04/28 07:35:08;;;;;;;1.93;1.70;;;12.00;99.90;;;;;;4968843;28;20648;-95
2023/04/28 07:37:40;;;;;;;2.27;1.97;;;12.00;99.90;;;;;;4975566;28;20219;-96
2023/04/28 07:40:13;;;;;;;2.83;2.33;;;11.90;99.90;;;;;;4976795;28;20460;-95
2023/04/28 07:42:44;;;;;;;2.97;1.73;;;11.90;99.90;;;;;;4969750;28;20230;-95
2023/04/28 07:45:18;;;;;;;2.93;1.80;;;11.90;99.90;;;;;;4959123;28;20721;-95
2023/04/28 07:47:50;;;;;;;2.90;2.00;;;11.80;99.90;;;;;;4974413;28;20262;-96
2023/04/28 07:50:22;;;;;;;5.77;2.03;;;11.80;99.90;;;;;;4975166;28;20220;-95
2023/04/28 07:52:53;;;;;;;4.93;2.07;;;11.70;99.90;;;;;;4971541;28;20215;-95
2023/04/28 07:55:25;;;;;;;3.00;1.93;;;11.70;99.90;;;;;;4977688;28;20290;-93
2023/04/28 07:57:57;;;;;;;2.93;1.87;;;11.60;99.90;;;;;;4968336;28;20211;-95
2023/04/28 08:00:30;;;;;;;4.73;2.67;;;11.50;99.90;;;;;;4977802;28;20621;-95
2023/04/28 08:03:01;;;;;;;2.83;2.10;;;11.50;99.90;;;;;;4977696;28;20234;-94
2023/04/28 08:05:33;;;;;;;2.13;1.93;;;11.50;99.90;;;;;;4976047;28;20239;-95
2023/04/28 08:08:04;;;;;;;2.47;2.17;;;11.40;99.90;;;;;;4975083;28;20207;-95
2023/04/28 08:10:36;;;;;;;2.47;2.23;;;11.40;99.90;;;;;;4977489;28;20261;-95
2023/04/28 08:13:08;;;;;;;4.47;2.37;;;11.30;99.90;;;;;;4972307;28;20235;-95
2023/04/28 08:15:41;;;;;;;4.97;2.23;;;11.30;99.90;;;;;;4974540;28;20238;-94
2023/04/28 08:18:13;;;;;;;7.20;2.03;;;11.20;99.90;;;;;;4978311;28;20207;-93
2023/04/28 08:20:45;;;;;;;3.13;2.40;;;11.20;99.90;;;;;;4973874;28;20230;-93
2023/04/28 08:23:16;;;;;;;10.27;2.80;;;11.10;99.90;;;;;;4968221;28;20247;-94
2023/04/28 08:25:48;;;;;;;3.93;2.33;;;11.10;99.90;;;;;;4962406;28;20226;-95
2023/04/28 08:28:20;;;;;;;2.67;2.10;;;11.10;99.90;;;;;;4978127;28;20674;-94
2023/04/28 08:30:54;;;;;;;3.93;2.30;;;11.00;99.90;;;;;;4977455;28;20210;-94
2023/04/28 08:33:25;;;;;;;4.17;2.30;;;11.00;99.90;;;;;;4985595;28;20272;-95
2023/04/28 08:35:57;;;;;;;2.73;2.13;;;11.00;99.90;;;;;;4997358;28;20221;-94
2023/04/28 08:38:29;;;;;;;3.00;2.70;;;11.00;99.90;;;;;;4982849;28;20295;-94
2023/04/28 08:41:00;;;;;;;2.70;2.50;;;10.90;99.90;;;;;;4979379;28;20218;-95
2023/04/28 08:43:34;;;;;;;2.77;2.47;;;10.90;99.90;;;;;;4980034;28;20219;-95
2023/04/28 08:46:09;;;;;;;3.40;2.40;;;10.80;99.90;;;;;;4995369;28;20215;-96
2023/04/28 08:48:43;;;;;;;4.70;2.57;;;10.70;99.90;;;;;;4978296;28;20278;-96
2023/04/28 08:51:17;;;;;;;4.80;2.30;;;10.70;99.90;;;;;;4975286;28;20213;-95
2023/04/28 08:53:56;;;;;;;2.90;2.40;;;10.60;99.90;;;;;;4996143;28;20203;-95
2023/04/28 08:56:48;;;;;;;6.57;2.40;;;10.60;99.90;;;;;;4993635;28;20223;-96
2023/04/28 08:59:20;;;;;;;3.63;2.47;;;10.50;99.90;;;;;;4994998;28;20269;-96
2023/04/28 09:01:53;;;;;;;4.13;2.70;;;10.50;99.90;;;;;;4995307;28;20216;-95
2023/04/28 09:04:24;;;;;;;4.60;2.70;;;10.50;99.90;;;;;;4988257;28;20233;-95
2023/04/28 09:06:57;;;;;;;2.77;2.57;;;10.50;99.90;;;;;;4976215;28;20274;-94
2023/04/28 09:09:30;;;;;;;8.17;2.83;;;10.40;99.90;;;;;;4975116;28;20230;-96
2023/04/28 09:12:07;;;;;;;4.00;2.57;;;10.40;99.90;;;;;;4976057;28;20265;-96
2023/04/28 09:14:39;;;;;;;4.17;2.57;;;10.40;99.90;;;;;;4975295;28;20657;-95
2023/04/28 09:17:16;;;;;;;3.53;2.40;;;10.40;99.90;;;;;;4974875;28;20273;-95
2023/04/28 09:19:48;;;;;;;3.33;2.47;;;10.40;99.90;;;;;;4965059;28;20756;-94
2023/04/28 09:22:28;;;;;;;4.47;2.63;;;10.30;99.90;;;;;;4956207;28;20242;-95
2023/04/28 09:25:13;;;;;;;3.80;2.60;;;10.30;99.90;;;;;;4968366;28;20226;-93
2023/04/28 09:27:44;;;;;;;4.50;2.83;;;10.30;99.90;;;;;;4974603;28;20203;-95
2023/04/28 09:30:16;;;;;;;3.23;2.83;;;10.30;99.90;;;;;;4974716;28;20636;-96
2023/04/28 09:33:07;;;;;;;3.33;2.40;;;10.30;99.90;;;;;;4960991;28;20247;-95
2023/04/28 09:35:46;;;;;;;4.13;2.83;;;10.20;99.90;;;;;;4956670;29;20295;-95
2023/04/28 09:38:17;;;;;;;2.40;2.20;;;10.20;99.90;;;;;;4957427;28;20623;-96
2023/04/28 09:40:54;;;;;;;2.80;2.03;;;10.20;99.90;;;;;;4955457;29;20215;-96
2023/04/28 09:43:26;;;;;;;4.20;2.17;;;10.20;99.90;;;;;;4959103;28;20274;-96
2023/04/28 09:46:00;;;;;;;4.33;2.27;;;10.20;99.90;;;;;;4973396;28;20294;-96
2023/04/28 09:48:35;;;;;;;2.77;2.47;;;10.20;99.90;;;;;;4978108;28;20211;-96
2023/04/28 09:51:08;;;;;;;3.73;2.03;;;10.10;99.90;;;;;;4978956;28;20712;-95
2023/04/28 09:53:43;;;;;;;3.73;2.50;;;10.10;99.90;;;;;;4979115;28;20273;-96
2023/04/28 09:56:18;;;;;;;3.80;2.00;;;10.10;99.90;;;;;;4959998;28;20360;-94
2023/04/28 09:58:51;;;;;;;4.07;2.63;;;10.10;99.90;;;;;;4959395;28;20685;-95
2023/04/28 10:01:23;;;;;;;2.00;1.80;;;10.10;99.90;;;;;;4958566;28;20295;-96
2023/04/28 10:03:59;;;;;;;3.93;2.13;;;10.10;99.90;;;;;;4958715;28;20254;-96
2023/04/28 10:06:31;;;;;;;2.20;2.00;;;10.10;99.90;;;;;;4972565;28;20243;-95
2023/04/28 10:09:03;;;;;;;2.60;2.10;;;10.10;99.90;;;;;;4977174;28;20269;-96
2023/04/28 10:11:35;;;;;;;3.57;2.00;;;10.10;99.90;;;;;;4977848;28;20206;-96
2023/04/28 10:14:09;;;;;;;2.10;1.90;;;10.00;99.90;;;;;;4647103;28;9999856;-96
2023/04/28 10:16:41;;;;;;;4.33;2.40;;;10.00;99.90;;;;;;4967509;28;20262;-95
2023/04/28 10:19:14;;;;;;;4.90;2.20;;;9.90;99.90;;;;;;4979154;28;20229;-96
2023/04/28 10:21:55;;;;;;;2.23;2.00;;;9.90;99.90;;;;;;4981170;28;20203;-95
2023/04/28 10:24:31;;;;;;;2.73;2.00;;;9.90;99.90;;;;;;4976739;28;20215;-95
2023/04/28 10:27:10;;;;;;;3.07;1.97;;;9.80;99.90;;;;;;4978769;28;20270;-96
2023/04/28 10:29:42;;;;;;;2.60;1.87;;;9.90;99.90;;;;;;4978390;28;20215;-95
2023/04/28 10:32:22;;;;;;;4.33;2.27;;;9.90;99.90;;;;;;4976629;28;20215;-95
2023/04/28 10:35:15;;;;;;;2.10;1.90;;;9.90;99.90;;;;;;4966019;28;20573;-94
2023/04/28 10:38:07;;;;;;;2.30;1.77;;;9.90;99.90;;;;;;4976252;28;20399;-95
2023/04/28 10:40:40;;;;;;;1.77;1.53;;;9.90;99.90;;;;;;4978925;28;20270;-95
2023/04/28 10:43:13;;;;;;;2.97;1.80;;;9.90;99.90;;;;;;4977574;28;20211;-95
2023/04/28 10:46:05;;;;;;;3.83;2.00;;;9.90;99.90;;;;;;4978903;28;20234;-95
2023/04/28 10:49:00;;;;;;;3.93;1.90;;;9.90;99.90;;;;;;4978327;28;20230;-95
2023/04/28 10:51:36;;;;;;;3.53;1.80;;;9.90;99.90;;;;;;4968964;28;20207;-95
2023/04/28 10:54:19;;;;;;;4.47;1.83;;;9.80;99.90;;;;;;4998597;28;20194;-95
2023/04/28 10:57:20;;;;;;;3.67;2.17;;;9.80;99.90;;;;;;4999755;28;20191;-95
2023/04/28 10:59:53;;;;;;;2.23;1.83;;;9.80;99.90;;;;;;4898253;29;20237;-95
2023/04/28 11:02:45;;;;;;;2.00;1.77;;;9.70;99.90;;;;;;4964841;28;20303;-96
2023/04/28 11:05:20;;;;;;;3.37;1.80;;;9.70;99.90;;;;;;4978030;28;20209;-96
2023/04/28 11:08:33;;;;;;;3.43;2.10;;;9.60;99.90;;;;;;4979622;28;20214;-95
2023/04/28 11:11:26;;;;;;;2.10;1.80;;;9.60;99.90;;;;;;4980514;28;20215;-95
2023/04/28 11:14:26;;;;;;;3.83;2.00;;;9.70;99.90;;;;;;4977929;28;20644;-96
2023/04/28 11:16:58;;;;;;;4.23;1.87;;;9.70;99.90;;;;;;4977644;28;20670;-96
2023/04/28 11:19:31;;;;;;;2.53;1.97;;;9.60;99.90;;;;;;4957831;29;20295;-96
2023/04/28 11:22:02;;;;;;;3.80;2.17;;;9.60;99.90;;;;;;4959037;29;20662;-96
2023/04/28 11:24:34;;;;;;;3.10;1.97;;;9.60;99.90;;;;;;4975646;28;20608;-95
2023/04/28 11:27:08;;;;;;;2.33;1.83;;;9.60;99.90;;;;;;4977698;28;20231;-95
2023/04/28 11:29:42;;;;;;;2.57;1.93;;;9.50;99.90;;;;;;4977744;28;20274;-96
2023/04/28 11:32:14;;;;;;;3.33;2.00;;;9.50;99.90;;;;;;4979472;28;20298;-95
2023/04/28 11:34:53;;;;;;;3.50;1.77;;;9.50;99.90;;;;;;4978021;28;20553;-96
2023/04/28 11:37:25;;;;;;;2.60;1.73;;;9.50;99.90;;;;;;4979337;28;20207;-96
2023/04/28 11:39:58;;;;;;;4.00;1.93;;;9.50;99.90;;;;;;4978469;28;20203;-95
2023/04/28 11:42:32;;;;;;;2.13;1.80;;;9.50;99.90;;;;;;4978105;28;20261;-96
2023/04/28 11:45:04;;;;;;;4.50;2.07;;;9.50;99.90;;;;;;4978617;28;20732;-96
2023/04/28 11:47:36;;;;;;;1.80;1.70;;;9.50;99.90;;;;;;4976560;28;20234;-96
2023/04/28 11:50:08;;;;;;;2.70;2.17;;;9.40;99.90;;;;;;4979128;28;20238;-96
2023/04/28 11:52:50;;;;;;;3.80;1.73;;;9.40;99.90;;;;;;4980104;28;20214;-94
2023/04/28 11:55:23;;;;;;;2.90;1.90;;;9.40;99.90;;;;;;4979191;28;20721;-96
2023/04/28 11:58:22;;;;;;;2.47;2.03;;;9.40;99.90;;;;;;4976717;28;20215;-96
2023/04/28 12:01:08;;;;;;;3.83;2.10;;;9.40;99.90;;;;;;4976794;28;20211;-96
2023/04/28 12:03:47;;;;;;;5.53;2.10;;;9.30;99.90;;;;;;4976528;28;20222;-96
2023/04/28 12:06:19;;;;;;;3.30;2.13;;;9.30;99.90;;;;;;4976323;28;20241;-96
2023/04/28 12:08:51;;;;;;;5.13;2.10;;;9.30;99.90;;;;;;4975705;28;20273;-96
2023/04/28 12:11:23;;;;;;;2.53;1.73;;;9.30;99.90;;;;;;4976470;28;20243;-96
2023/04/28 12:14:10;;;;;;;3.20;2.00;;;9.30;99.90;;;;;;4982007;28;20218;-96
2023/04/28 12:16:47;;;;;;;3.10;2.23;;;9.30;99.90;;;;;;4995969;28;20206;-96
2023/04/28 12:19:18;;;;;;;3.93;2.33;;;9.20;99.90;;;;;;4969212;28;20234;-96
2023/04/28 12:22:03;;;;;;;2.67;2.07;;;9.20;99.90;;;;;;4976891;28;20218;-96
2023/04/28 12:24:36;;;;;;;4.30;2.00;;;9.20;99.90;;;;;;4976463;28;20199;-96
2023/04/28 12:27:20;;;;;;;2.40;2.00;;;9.20;99.90;;;;;;4976909;28;20274;-96
2023/04/28 12:29:55;;;;;;;3.03;2.20;;;9.10;99.90;;;;;;4959721;28;20290;-96
2023/04/28 12:32:40;;;;;;;4.13;2.00;;;9.10;99.90;;;;;;4962918;28;20724;-96
2023/04/28 12:35:12;;;;;;;3.87;2.27;;;9.10;99.90;;;;;;4977127;28;20314;-95
2023/04/28 12:37:44;;;;;;;2.83;2.13;;;9.10;99.90;;;;;;4976159;28;20207;-96
2023/04/28 12:40:16;;;;;;;4.73;2.03;;;9.20;99.90;;;;;;4973790;28;20665;-96
2023/04/28 12:42:47;;;;;;;3.53;2.20;;;9.10;99.90;;;;;;4958787;28;20248;-96
2023/04/28 12:45:21;;;;;;;3.37;2.40;;;9.10;99.90;;;;;;4970020;28;20227;-95
2023/04/28 12:47:51;;;;;;;2.40;2.00;;;9.10;99.90;;;;;;4983192;28;20219;-96
2023/04/28 12:50:24;;;;;;;6.07;2.57;;;9.10;99.90;;;;;;4998309;28;20217;-94
2023/04/28 12:52:56;;;;;;;3.10;2.33;;;9.10;99.90;;;;;;4998003;28;20221;-96
2023/04/28 12:55:30;;;;;;;2.60;2.20;;;9.10;99.90;;;;;;4996193;28;20211;-95
2023/04/28 12:58:01;;;;;;;6.20;2.90;;;9.00;99.90;;;;;;4987503;28;20199;-96
2023/04/28 13:00:35;;;;;;;3.77;2.70;;;9.00;99.90;;;;;;4998393;28;20223;-96
2023/04/28 13:03:07;;;;;;;2.83;2.37;;;8.90;99.90;;;;;;4995086;28;20190;-96
2023/04/28 13:05:39;;;;;;;2.83;2.57;;;8.90;99.90;;;;;;4997463;28;20227;-95
2023/04/28 13:08:11;;;;;;;3.90;2.47;;;8.90;99.90;;;;;;4990228;28;20242;-95
2023/04/28 13:10:44;;;;;;;2.53;2.33;;;8.80;99.90;;;;;;4981911;28;20211;-96
2023/04/28 13:13:15;;;;;;;3.03;2.67;;;8.80;99.90;;;;;;4976623;28;20204;-96
2023/04/28 13:15:50;;;;;;;6.83;2.73;;;8.90;99.90;;;;;;4971810;29;20211;-96
2023/04/28 13:18:22;;;;;;;3.30;2.40;;;8.90;99.90;;;;;;4961220;28;20199;-89
2023/04/28 13:20:53;;;;;;;3.90;2.73;;;8.90;99.90;;;;;;4978395;28;20192;-96